createdAt,value
2023-02-11T00:00:34.373Z,25.82
2023-02-11T00:03:26.314Z,25.80
2023-02-11T00:06:18.031Z,25.67
2023-02-11T00:09:09.997Z,25.67
2023-02-11T00:12:01.265Z,25.87
2023-02-11T00:14:52.828Z,25.96
2023-02-11T00:17:44.326Z,26.06
2023-02-11T00:20:35.444Z,26.03
2023-02-11T00:23:27.198Z,26.04
2023-02-11T00:26:20.437Z,26.06
2023-02-11T00:29:11.618Z,26.05
2023-02-11T00:32:05.708Z,25.89
2023-02-11T00:34:57.286Z,25.82
2023-02-11T00:37:48.498Z,25.82
2023-02-11T00:40:39.672Z,25.89
2023-02-11T00:43:31.396Z,25.85
2023-02-11T00:46:24.638Z,25.78
2023-02-11T00:49:16.372Z,25.69
2023-02-11T00:52:07.688Z,25.75
2023-02-11T00:54:58.874Z,25.67
2023-02-11T00:57:50.422Z,25.64
2023-02-11T01:00:41.708Z,25.64
2023-02-11T01:03:33.398Z,25.52
2023-02-11T01:06:25.184Z,25.49
2023-02-11T01:09:17.697Z,25.46
2023-02-11T01:12:10.471Z,25.49
2023-02-11T01:15:08.573Z,25.54
2023-02-11T01:18:30.086Z,25.57
2023-02-11T01:21:20.936Z,25.56
2023-02-11T01:24:12.791Z,25.57
2023-02-11T01:27:04.475Z,25.46
2023-02-11T01:29:58.989Z,25.51
2023-02-11T01:32:55.406Z,25.41
2023-02-11T01:35:48.330Z,25.28
2023-02-11T01:38:41.449Z,25.22
2023-02-11T01:41:33.689Z,25.12
2023-02-11T01:44:32.741Z,25.03
2023-02-11T01:47:25.554Z,24.99
2023-02-11T01:50:17.507Z,24.76
2023-02-11T01:53:25.798Z,24.73
2023-02-11T01:56:34.721Z,24.79
2023-02-11T01:59:33.341Z,24.86
2023-02-11T02:02:30.234Z,24.83
2023-02-11T02:05:29.334Z,24.81
2023-02-11T02:08:26.791Z,24.87
2023-02-11T02:11:24.514Z,24.95
2023-02-11T02:14:15.880Z,24.93
2023-02-11T02:17:07.178Z,24.81
2023-02-11T02:20:35.043Z,24.99
2023-02-11T02:23:37.430Z,25.01
2023-02-11T02:27:14.334Z,24.88
2023-02-11T02:30:27.443Z,24.92
2023-02-11T02:33:32.838Z,24.91
2023-02-11T02:36:35.488Z,25.02
2023-02-11T02:39:31.095Z,25.13
2023-02-11T02:42:27.530Z,25.28
2023-02-11T02:45:23.376Z,25.44
2023-02-11T02:48:29.409Z,25.58
2023-02-11T02:51:52.634Z,25.91
2023-02-11T02:55:10.976Z,26.22
2023-02-11T02:58:49.038Z,26.40
2023-02-11T03:01:51.612Z,26.58
2023-02-11T03:04:54.845Z,26.73
2023-02-11T03:07:53.461Z,26.81
2023-02-11T03:10:49.415Z,26.82
2023-02-11T03:13:42.741Z,26.86
2023-02-11T03:16:40.690Z,26.78
2023-02-11T03:19:37.936Z,26.81
2023-02-11T03:22:36.360Z,26.74
2023-02-11T03:25:33.666Z,26.61
2023-02-11T03:28:33.356Z,26.50
2023-02-11T03:31:38.264Z,26.44
2023-02-11T03:34:40.971Z,26.45
2023-02-11T03:37:40.418Z,26.46
2023-02-11T03:40:44.535Z,26.40
2023-02-11T03:43:42.206Z,26.38
2023-02-11T03:46:37.488Z,26.45
2023-02-11T03:49:32.905Z,26.48
2023-02-11T03:52:29.294Z,26.57
2023-02-11T03:55:26.012Z,26.49
2023-02-11T03:58:17.197Z,26.40
2023-02-11T04:01:13.217Z,26.30
2023-02-11T04:04:05.499Z,26.35
2023-02-11T04:06:57.061Z,26.22
2023-02-11T04:09:48.682Z,26.18
2023-02-11T04:12:39.918Z,26.12
2023-02-11T04:15:30.805Z,26.11
2023-02-11T04:18:23.337Z,26.03
2023-02-11T04:21:16.469Z,26.00
2023-02-11T04:24:08.498Z,25.98
2023-02-11T04:27:00.124Z,25.81
2023-02-11T04:29:55.554Z,25.82
2023-02-11T04:32:46.743Z,25.84
2023-02-11T04:35:38.438Z,25.70
2023-02-11T04:38:30.090Z,25.61
2023-02-11T04:41:29.455Z,25.53
2023-02-11T04:44:20.753Z,25.56
2023-02-11T04:47:12.905Z,25.55
2023-02-11T04:50:04.647Z,25.48
2023-02-11T04:52:56.401Z,25.41
2023-02-11T04:55:50.392Z,25.45
2023-02-11T04:58:41.848Z,25.29
2023-02-11T05:01:33.736Z,25.38
2023-02-11T05:04:25.388Z,25.36
2023-02-11T05:07:16.393Z,25.21
2023-02-11T05:10:09.427Z,25.19
2023-02-11T05:13:00.923Z,25.05
2023-02-11T05:15:52.166Z,25.09
2023-02-11T05:18:45.242Z,25.25
2023-02-11T05:21:36.980Z,25.13
2023-02-11T05:24:28.495Z,25.07
2023-02-11T05:27:19.784Z,25.07
2023-02-11T05:30:13.750Z,25.04
2023-02-11T05:33:05.331Z,25.12
2023-02-11T05:36:02.478Z,25.10
2023-02-11T05:38:54.283Z,25.18
2023-02-11T05:41:45.636Z,25.25
2023-02-11T05:44:37.365Z,25.20
2023-02-11T05:47:28.717Z,25.14
2023-02-11T05:50:21.149Z,25.19
2023-02-11T05:53:17.067Z,25.21
2023-02-11T05:56:10.739Z,25.30
2023-02-11T05:59:03.332Z,25.36
2023-02-11T06:01:55.525Z,25.66
2023-02-11T06:04:46.696Z,25.79
2023-02-11T06:07:40.409Z,25.70
2023-02-11T06:10:31.605Z,25.83
2023-02-11T06:13:22.715Z,25.79
2023-02-11T06:16:14.190Z,25.65
2023-02-11T06:19:06.669Z,25.60
2023-02-11T06:21:58.034Z,25.63
2023-02-11T06:25:00.928Z,25.62
2023-02-11T06:27:52.569Z,25.56
2023-02-11T06:30:43.347Z,25.43
2023-02-11T06:33:33.819Z,25.48
2023-02-11T06:36:25.407Z,25.46
2023-02-11T06:39:17.462Z,26.71
2023-02-11T06:42:08.255Z,26.35
2023-02-11T06:44:59.661Z,26.43
2023-02-11T06:47:52.917Z,26.46
2023-02-11T06:50:43.555Z,26.68
2023-02-11T06:53:36.568Z,26.97
2023-02-11T06:56:28.138Z,27.44
2023-02-11T06:59:21.484Z,26.63
2023-02-11T07:02:14.404Z,26.48
2023-02-11T07:05:06.768Z,26.09
2023-02-11T07:07:58.992Z,26.29
2023-02-11T07:10:50.417Z,25.85
2023-02-11T07:13:40.930Z,25.40
2023-02-11T07:16:32.662Z,25.20
2023-02-11T07:19:26.229Z,25.59
2023-02-11T07:22:16.792Z,25.44
2023-02-11T07:25:08.690Z,25.34
2023-02-11T07:28:00.448Z,25.30
2023-02-11T07:30:51.070Z,25.12
2023-02-11T07:33:42.150Z,24.97
2023-02-11T07:36:34.108Z,25.24
2023-02-11T07:39:27.692Z,25.03
2023-02-11T07:42:18.892Z,24.96
2023-02-11T07:45:11.544Z,25.14
2023-02-11T07:48:02.828Z,24.88
2023-02-11T07:50:54.290Z,24.95
2023-02-11T07:53:45.986Z,24.97
2023-02-11T07:56:37.954Z,25.03
2023-02-11T07:59:29.124Z,25.10
2023-02-11T08:02:20.371Z,25.20
2023-02-11T08:05:11.768Z,25.44
2023-02-11T08:08:04.139Z,25.56
2023-02-11T08:10:55.129Z,25.60
2023-02-11T08:13:46.257Z,25.55
2023-02-11T08:16:41.310Z,25.88
2023-02-11T08:19:34.856Z,26.00
2023-02-11T08:22:25.831Z,25.98
2023-02-11T08:25:16.568Z,25.92
2023-02-11T08:28:09.445Z,25.73
2023-02-11T08:31:08.854Z,25.55
2023-02-11T08:34:00.189Z,25.40
2023-02-11T08:36:51.494Z,25.50
2023-02-11T08:39:41.781Z,25.39
2023-02-11T08:42:32.235Z,25.60
2023-02-11T08:45:23.389Z,25.54
2023-02-11T08:48:14.521Z,25.25
2023-02-11T08:51:09.991Z,25.17
2023-02-11T08:54:02.293Z,25.18
2023-02-11T08:56:55.487Z,25.25
2023-02-11T08:59:46.170Z,25.68
2023-02-11T09:02:36.620Z,25.96
2023-02-11T09:05:27.775Z,26.01
2023-02-11T09:08:18.700Z,25.39
2023-02-11T09:11:09.988Z,24.90
2023-02-11T09:14:01.116Z,24.35
2023-02-11T09:16:53.390Z,23.98
2023-02-11T09:19:43.933Z,23.50
2023-02-11T09:22:34.507Z,23.36
2023-02-11T09:25:26.140Z,23.21
2023-02-11T09:28:17.842Z,22.95
2023-02-11T09:31:10.908Z,22.81
2023-02-11T09:34:04.521Z,22.47
2023-02-11T09:36:55.492Z,22.11
2023-02-11T09:39:47.632Z,21.91
2023-02-11T09:42:49.764Z,21.97
2023-02-11T09:45:40.999Z,21.85
2023-02-11T09:48:39.875Z,21.87
2023-02-11T09:51:43.569Z,21.76
2023-02-11T09:54:44.334Z,21.98
2023-02-11T09:57:38.153Z,22.62
2023-02-11T10:00:35.980Z,23.12
2023-02-11T10:03:52.123Z,23.26
2023-02-11T10:06:50.892Z,23.82
2023-02-11T10:10:02.545Z,23.92
2023-02-11T10:13:09.314Z,24.04
2023-02-11T10:16:07.718Z,24.15
2023-02-11T10:19:14.267Z,24.11
2023-02-11T10:22:14.127Z,24.55
2023-02-11T10:25:19.483Z,24.72
2023-02-11T10:28:19.002Z,25.61
2023-02-11T10:31:18.407Z,24.82
2023-02-11T10:34:11.627Z,24.69
2023-02-11T10:37:02.319Z,24.73
2023-02-11T10:39:53.535Z,24.81
2023-02-11T10:42:48.264Z,24.82
2023-02-11T10:45:40.896Z,25.00
2023-02-11T10:48:44.125Z,25.21
2023-02-11T10:51:35.543Z,25.28
2023-02-11T10:54:28.959Z,25.39
2023-02-11T10:57:22.783Z,26.06
2023-02-11T11:00:34.618Z,26.46
2023-02-11T11:03:34.991Z,26.70
2023-02-11T11:06:34.974Z,26.38
2023-02-11T11:09:44.932Z,26.64
2023-02-11T11:12:49.723Z,27.09
2023-02-11T11:15:40.658Z,27.05
2023-02-11T11:18:31.699Z,27.20
2023-02-11T11:21:26.416Z,27.89
2023-02-11T11:24:24.549Z,28.14
2023-02-11T11:27:26.187Z,28.19
2023-02-11T11:30:21.648Z,28.07
2023-02-11T11:33:22.839Z,28.23
2023-02-11T11:36:16.933Z,28.29
2023-02-11T11:39:22.584Z,28.22
2023-02-11T11:42:29.893Z,28.38
2023-02-11T11:45:28.005Z,28.57
2023-02-11T11:48:23.868Z,28.32
2023-02-11T11:51:15.903Z,28.36
2023-02-11T11:54:16.500Z,28.84
2023-02-11T11:57:18.275Z,29.17
2023-02-11T12:00:18.918Z,28.89
2023-02-11T12:03:42.540Z,29.04
2023-02-11T12:06:45.964Z,29.53
2023-02-11T12:09:50.299Z,29.56
2023-02-11T12:12:51.740Z,29.58
2023-02-11T12:15:50.967Z,29.68
2023-02-11T12:18:56.172Z,29.71
2023-02-11T12:22:05.194Z,29.85
2023-02-11T12:25:19.145Z,30.23
2023-02-11T12:28:25.981Z,30.27
2023-02-11T12:31:34.311Z,30.48
2023-02-11T12:34:54.532Z,30.59
2023-02-11T12:37:59.879Z,30.33
2023-02-11T12:41:02.470Z,30.50
2023-02-11T12:43:53.330Z,30.40
2023-02-11T12:46:51.588Z,30.68
2023-02-11T12:50:05.812Z,30.71
2023-02-11T12:53:13.193Z,30.64
2023-02-11T12:56:13.739Z,30.88
2023-02-11T12:59:14.435Z,31.08
2023-02-11T13:02:14.372Z,31.59
2023-02-11T13:05:14.509Z,31.51
2023-02-11T13:08:12.479Z,31.35
2023-02-11T13:11:08.058Z,31.38
2023-02-11T13:14:05.907Z,31.74
2023-02-11T13:16:58.748Z,31.75
2023-02-11T13:19:53.819Z,31.74
2023-02-11T13:22:50.594Z,32.00
2023-02-11T13:25:50.244Z,32.10
2023-02-11T13:28:52.178Z,32.20
2023-02-11T13:31:42.695Z,32.48
2023-02-11T13:34:58.172Z,32.78
2023-02-11T13:37:53.712Z,33.45
2023-02-11T13:40:47.375Z,33.66
2023-02-11T13:43:39.461Z,33.71
2023-02-11T13:46:32.054Z,33.69
2023-02-11T13:49:26.179Z,33.67
2023-02-11T13:52:27.183Z,33.69
2023-02-11T13:55:27.562Z,33.82
2023-02-11T13:58:36.497Z,33.76
2023-02-11T14:02:23.790Z,33.89
2023-02-11T14:05:51.094Z,34.20
2023-02-11T14:09:11.282Z,34.51
2023-02-11T14:12:41.213Z,34.57
2023-02-11T14:15:41.642Z,34.76
2023-02-11T14:18:59.723Z,34.60
2023-02-11T14:21:51.714Z,34.80
2023-02-11T14:24:54.585Z,34.87
2023-02-11T14:27:55.544Z,34.90
2023-02-11T14:30:59.466Z,35.00
2023-02-11T14:34:07.356Z,35.29
2023-02-11T14:37:19.842Z,35.34
2023-02-11T14:40:23.170Z,35.95
2023-02-11T14:43:19.709Z,36.28
2023-02-11T14:46:11.882Z,36.29
2023-02-11T14:49:06.011Z,36.43
2023-02-11T14:51:59.740Z,36.60
2023-02-11T14:54:52.868Z,36.80
2023-02-11T14:57:45.978Z,37.19
2023-02-11T15:00:36.985Z,37.62
2023-02-11T15:03:33.891Z,37.40
2023-02-11T15:06:26.612Z,37.50
2023-02-11T15:09:24.209Z,37.76
2023-02-11T15:12:24.138Z,37.97
2023-02-11T15:15:19.270Z,37.97
2023-02-11T15:18:11.218Z,37.99
2023-02-11T15:21:02.299Z,38.19
2023-02-11T15:24:06.293Z,38.00
2023-02-11T15:27:16.486Z,37.79
2023-02-11T15:30:27.699Z,37.94
2023-02-11T15:33:26.237Z,37.71
2023-02-11T15:36:18.401Z,37.82
2023-02-11T15:39:35.901Z,37.57
2023-02-11T15:42:43.894Z,37.49
2023-02-11T15:45:44.626Z,37.28
2023-02-11T15:48:39.383Z,37.73
2023-02-11T15:51:33.793Z,38.60
2023-02-11T15:54:28.016Z,38.58
2023-02-11T15:57:19.189Z,39.52
2023-02-11T16:00:17.343Z,39.52
2023-02-11T16:03:08.389Z,39.76
2023-02-11T16:06:00.106Z,39.56
2023-02-11T16:09:04.288Z,39.32
2023-02-11T16:12:00.864Z,39.13
2023-02-11T16:14:52.100Z,39.58
2023-02-11T16:17:45.591Z,39.74
2023-02-11T16:20:36.900Z,39.81
2023-02-11T16:23:30.391Z,39.83
2023-02-11T16:26:29.181Z,39.95
2023-02-11T16:29:26.131Z,39.71
2023-02-11T16:32:22.972Z,39.84
2023-02-11T16:35:15.633Z,40.07
2023-02-11T16:38:06.549Z,40.37
2023-02-11T16:40:57.645Z,40.43
2023-02-11T16:43:48.560Z,40.53
2023-02-11T16:46:40.355Z,40.41
2023-02-11T16:49:32.343Z,40.34
2023-02-11T16:52:24.596Z,40.61
2023-02-11T16:55:16.018Z,40.65
2023-02-11T16:58:06.717Z,40.68
2023-02-11T17:00:57.585Z,40.58
2023-02-11T17:03:48.034Z,40.65
2023-02-11T17:06:38.739Z,40.62
2023-02-11T17:09:31.351Z,40.70
2023-02-11T17:12:22.599Z,40.69
2023-02-11T17:15:14.939Z,40.95
2023-02-11T17:18:06.977Z,41.21
2023-02-11T17:20:57.361Z,41.06
2023-02-11T17:23:48.380Z,41.14
2023-02-11T17:26:39.648Z,41.04
2023-02-11T17:29:30.506Z,41.02
2023-02-11T17:32:21.179Z,41.21
2023-02-11T17:35:13.708Z,41.20
2023-02-11T17:38:04.803Z,41.27
2023-02-11T17:41:02.706Z,41.38
2023-02-11T17:43:53.581Z,41.66
2023-02-11T17:46:44.334Z,41.57
2023-02-11T17:49:35.897Z,41.11
2023-02-11T17:52:28.537Z,41.08
2023-02-11T17:55:20.399Z,41.17
2023-02-11T17:58:13.084Z,41.23
2023-02-11T18:01:03.987Z,41.20
2023-02-11T18:03:55.225Z,41.23
2023-02-11T18:06:47.194Z,41.36
2023-02-11T18:09:44.398Z,41.35
2023-02-11T18:12:35.197Z,41.45
2023-02-11T18:15:26.565Z,41.58
2023-02-11T18:18:17.588Z,41.56
2023-02-11T18:21:10.349Z,41.63
2023-02-11T18:24:06.527Z,41.66
2023-02-11T18:26:58.505Z,41.79
2023-02-11T18:29:49.261Z,41.84
2023-02-11T18:32:40.675Z,41.90
2023-02-11T18:35:31.791Z,41.87
2023-02-11T18:38:23.409Z,42.01
2023-02-11T18:41:14.614Z,42.12
2023-02-11T18:44:06.205Z,42.21
2023-02-11T18:46:57.446Z,42.06
2023-02-11T18:49:48.669Z,42.06
2023-02-11T18:52:39.694Z,42.12
2023-02-11T18:55:31.095Z,42.15
2023-02-11T18:58:22.790Z,42.17
2023-02-11T19:01:19.586Z,42.08
2023-02-11T19:04:12.112Z,42.33
2023-02-11T19:07:04.973Z,42.23
2023-02-11T19:09:56.398Z,42.31
2023-02-11T19:12:48.219Z,42.31
2023-02-11T19:15:41.848Z,42.33
2023-02-11T19:18:32.745Z,42.35
2023-02-11T19:21:23.515Z,42.60
2023-02-11T19:24:25.124Z,42.68
2023-02-11T19:27:16.311Z,42.76
2023-02-11T19:30:08.752Z,42.87
2023-02-11T19:32:59.413Z,42.95
2023-02-11T19:35:57.817Z,43.04
2023-02-11T19:38:52.964Z,43.18
2023-02-11T19:41:45.418Z,43.23
2023-02-11T19:44:36.565Z,43.30
2023-02-11T19:47:28.046Z,43.39
2023-02-11T19:50:24.123Z,43.35
2023-02-11T19:53:15.425Z,43.56
2023-02-11T19:56:07.865Z,43.47
2023-02-11T19:59:09.307Z,43.61
2023-02-11T20:02:01.618Z,43.59
2023-02-11T20:04:52.048Z,43.62
2023-02-11T20:07:44.278Z,43.61
2023-02-11T20:10:36.041Z,43.64
2023-02-11T20:13:30.761Z,43.75
2023-02-11T20:16:27.016Z,43.79
2023-02-11T20:19:25.619Z,43.76
2023-02-11T20:22:16.287Z,43.70
2023-02-11T20:25:08.143Z,43.90
2023-02-11T20:27:59.090Z,43.96
2023-02-11T20:30:59.275Z,44.00
2023-02-11T20:33:50.705Z,44.17
2023-02-11T20:36:42.268Z,44.29
2023-02-11T20:39:33.451Z,44.37
2023-02-11T20:42:27.615Z,44.55
2023-02-11T20:45:19.557Z,44.48
2023-02-11T20:48:10.785Z,44.55
2023-02-11T20:51:05.713Z,44.53
2023-02-11T20:53:59.781Z,44.67
2023-02-11T20:56:57.155Z,44.54
2023-02-11T20:59:48.471Z,44.49
2023-02-11T21:02:40.397Z,44.57
2023-02-11T21:05:32.888Z,44.62
2023-02-11T21:08:24.124Z,44.67
2023-02-11T21:11:14.890Z,44.73
2023-02-11T21:14:06.484Z,44.83
2023-02-11T21:16:58.090Z,44.98
2023-02-11T21:19:50.029Z,44.88
2023-02-11T21:22:41.099Z,44.98
2023-02-11T21:25:31.750Z,44.92
2023-02-11T21:28:26.689Z,44.96
2023-02-11T21:31:24.370Z,45.20
2023-02-11T21:34:16.583Z,44.98
2023-02-11T21:37:08.309Z,45.19
2023-02-11T21:40:00.062Z,45.27
2023-02-11T21:42:51.983Z,45.25
2023-02-11T21:45:48.030Z,45.39
2023-02-11T21:48:39.917Z,45.37
2023-02-11T21:51:38.004Z,45.57
2023-02-11T21:54:32.556Z,45.52
2023-02-11T21:57:24.613Z,45.46
2023-02-11T22:00:19.896Z,45.42
2023-02-11T22:03:11.784Z,45.37
2023-02-11T22:06:13.033Z,45.46
2023-02-11T22:09:06.880Z,45.66
2023-02-11T22:11:57.822Z,45.60
2023-02-11T22:14:49.650Z,45.57
2023-02-11T22:17:41.369Z,45.62
2023-02-11T22:20:32.549Z,45.63
2023-02-11T22:23:24.833Z,45.64
2023-02-11T22:26:18.433Z,45.53
2023-02-11T22:29:11.029Z,45.59
2023-02-11T22:32:01.957Z,45.51
2023-02-11T22:34:53.548Z,45.61
2023-02-11T22:37:45.136Z,45.67
2023-02-11T22:40:36.345Z,45.85
2023-02-11T22:43:28.838Z,45.98
2023-02-11T22:46:21.056Z,46.07
2023-02-11T22:49:15.165Z,46.03
2023-02-11T22:52:06.705Z,46.16
2023-02-11T22:55:00.709Z,46.16
2023-02-11T22:57:51.814Z,46.24
2023-02-11T23:00:44.393Z,46.15
2023-02-11T23:03:36.575Z,46.03
2023-02-11T23:06:28.004Z,46.17
2023-02-11T23:09:20.111Z,46.15
2023-02-11T23:12:11.504Z,46.16
2023-02-11T23:15:04.927Z,46.18
2023-02-11T23:17:56.118Z,46.26
2023-02-11T23:20:47.315Z,46.28
2023-02-11T23:23:39.268Z,46.26
2023-02-11T23:26:30.445Z,46.25
2023-02-11T23:29:21.369Z,46.34
2023-02-11T23:32:12.656Z,46.30
2023-02-11T23:35:04.312Z,46.34
2023-02-11T23:37:56.794Z,46.48
2023-02-11T23:40:48.552Z,46.34
2023-02-11T23:43:40.170Z,46.51
2023-02-11T23:46:31.415Z,46.48
2023-02-11T23:49:22.792Z,46.59
2023-02-11T23:52:14.462Z,46.54
2023-02-11T23:55:06.578Z,46.74
2023-02-11T23:57:57.191Z,46.73
